DW1254 Weather Reports


Display with metric or nautical units.
time (UTC)temp
F
wind
direction
speed
MPH
gust
MPH
rain 1hr
in
rain 24hr
in
rain mn
in
humidity
%
barometer
mb
20210506104234 54 0 0.0 0.0 0.00 0.00 0.00 31 1018.4
20210506103334 55 0 0.0 0.0 0.00 0.00 0.00 29 1018.4
20210506102434 56 0 0.0 0.0 0.00 0.00 0.00 28 1018.3
20210506101534 57 0 0.0 0.0 0.00 0.00 0.00 28 1018.3
20210506100634 58 0 0.0 0.0 0.00 0.00 0.00 27 1018.3
20210506095734 58 0 0.0 0.0 0.00 0.00 0.00 27 1018.2
20210506094834 58 0 0.0 0.0 0.00 0.00 0.00 27 1018.1
20210506093934 58 16 0.0 3.0 0.00 0.00 0.00 27 1018.0
20210506093034 58 5 1.0 5.0 0.00 0.00 0.00 27 1018.0
20210506092134 59 18 0.0 3.0 0.00 0.00 0.00 26 1018.0
20210506091234 60 17 0.0 3.0 0.00 0.00 0.00 25 1018.0
20210506090334 62 11 0.0 2.0 0.00 0.00 0.00 24 1018.0
20210506085434 62 11 1.0 3.0 0.00 0.00 0.00 24 1018.0
20210506084534 63 7 1.0 4.0 0.00 0.00 0.00 23 1018.0
20210506083634 65 346 1.0 4.0 0.00 0.00 0.00 23 1018.0
20210506082734 66 316 3.0 10.0 0.00 0.00 0.00 22 1018.1
20210506081833 62 307 3.0 10.0 0.00 0.00 0.00 25 1018.1
20210506080934 60 330 0.0 1.0 0.00 0.00 0.00 26 1018.3
20210506080034 61 325 0.0 2.0 0.00 0.00 0.00 25 1018.3
20210506075133 62 320 0.0 2.0 0.00 0.00 0.00 24 1018.3
20210506074234 63 319 0.0 1.0 0.00 0.00 0.00 24 1018.4
20210506073333 65 318 0.0 2.0 0.00 0.00 0.00 22 1018.5
20210506072433 68 312 1.0 3.0 0.00 0.00 0.00 21 1018.6
20210506071534 68 312 2.0 5.0 0.00 0.00 0.00 20 1018.7
20210506070634 68 321 1.0 4.0 0.00 0.00 0.00 21 1018.7
20210506065734 67 323 2.0 5.0 0.00 0.00 0.00 21 1018.8
20210506064834 65 325 1.0 5.0 0.00 0.00 0.00 22 1018.8
20210506063934 65 292 0.0 2.0 0.00 0.00 0.00 22 1018.8
20210506063033 66 0 0.0 0.0 0.00 0.00 0.00 22 1018.9
20210506062134 68 0 0.0 0.0 0.00 0.00 0.00 21 1018.8
20210506061233 68 293 0.0 1.0 0.00 0.00 0.00 20 1018.9
20210506060334 69 247 0.0 1.0 0.00 0.00 0.00 20 1018.9
20210506055434 68 252 1.0 4.0 0.00 0.00 0.00 20 1018.4
20210506054534 68 36 0.0 1.0 0.00 0.00 0.00 21 1018.3
20210506053634 69 0 0.0 0.0 0.00 0.00 0.00 20 1018.3
20210506052733 71 37 0.0 1.0 0.00 0.00 0.00 19 1018.5
20210506051834 72 40 0.0 5.0 0.00 0.00 0.00 19 1018.4
20210506050933 72 43 1.0 4.0 0.00 0.00 0.00 19 1018.3
20210506050033 72 45 0.0 4.0 0.00 0.00 0.00 19 1018.1
20210506045134 72 52 1.0 6.0 0.00 0.00 0.00 19 1018.0
20210506044234 72 73 2.0 5.0 0.00 0.00 0.00 19 1018.0
20210506043334 73 60 0.0 4.0 0.00 0.00 0.00 18 1017.9
20210506042434 73 49 1.0 7.0 0.00 0.00 0.00 18 1017.7
20210506041534 73 48 1.0 3.0 0.00 0.00 0.00 18 1017.7
20210506040634 73 43 1.0 4.0 0.00 0.00 0.00 18 1017.6
20210506035733 73 32 1.0 5.0 0.00 0.00 0.00 18 1017.5
20210506034833 73 44 1.0 6.0 0.00 0.00 0.00 18 1017.5
20210506033934 73 42 1.0 6.0 0.00 0.00 0.00 18 1017.4
20210506033034 74 44 1.0 5.0 0.00 0.00 0.00 18 1017.4
20210506032134 74 32 2.0 7.0 0.00 0.00 0.00 18 1017.4
20210506031234 74 47 0.0 7.0 0.00 0.00 0.00 18 1017.3
20210506030333 74 31 1.0 7.0 0.00 0.00 0.00 18 1017.3
20210506025433 74 55 0.0 3.0 0.00 0.00 0.00 18 1016.9
20210506024533 74 44 1.0 4.0 0.00 0.00 0.00 18 1016.8
20210506023634 74 39 1.0 4.0 0.00 0.00 0.00 18 1016.7
20210506022734 74 38 0.0 3.0 0.00 0.00 0.00 18 1016.6
20210506021834 75 44 0.0 2.0 0.00 0.00 0.00 17 1016.5
20210506020933 77 51 0.0 4.0 0.00 0.00 0.00 16 1016.4
20210506020033 78 47 0.0 4.0 0.00 0.00 0.00 16 1016.4
20210506015133 79 51 1.0 4.0 0.00 0.00 0.00 16 1016.3
20210506014233 80 44 1.0 5.0 0.00 0.00 0.00 15 1016.3
20210506013333 81 48 1.0 5.0 0.00 0.00 0.00 15 1016.2
20210506012434 82 93 1.0 5.0 0.00 0.00 0.00 15 1016.1
20210506011533 82 138 2.0 4.0 0.00 0.00 0.00 14 1016.1
20210506010634 83 142 3.0 7.0 0.00 0.00 0.00 14 1016.0
20210506005733 83 167 2.0 6.0 0.00 0.00 0.00 14 1016.0
20210506004834 84 181 1.0 5.0 0.00 0.00 0.00 14 1016.0
20210506003933 84 154 3.0 8.0 0.00 0.00 0.00 14 1016.1
20210506003033 84 135 2.0 8.0 0.00 0.00 0.00 14 1016.2
20210506002134 84 172 3.0 8.0 0.00 0.00 0.00 14 1016.2
20210506001234 85 183 3.0 7.0 0.00 0.00 0.00 14 1016.1
20210506000333 85 330 1.0 3.0 0.00 0.00 0.00 13 1016.2
20210505235433 85 246 2.0 7.0 0.00 0.00 0.00 14 1016.2
20210505234533 85 214 3.0 8.0 0.00 0.00 0.00 14 1016.2
20210505233634 85 207 3.0 18.0 0.00 0.00 0.00 14 1016.3
20210505232733 85 183 3.0 9.0 0.00 0.00 0.00 13 1016.3
20210505231833 85 218 0.0 4.0 0.00 0.00 0.00 13 1016.3
20210505230933 84 123 4.0 12.0 0.00 0.00 0.00 14 1016.4
20210505230034 84 80 3.0 9.0 0.00 0.00 0.00 13 1016.4
20210505225134 84 76 2.0 7.0 0.00 0.00 0.00 13 1016.4
20210505224234 85 7 1.0 5.0 0.00 0.00 0.00 13 1016.6
20210505223333 84 192 1.0 5.0 0.00 0.00 0.00 13 1016.6
20210505222433 84 114 4.0 10.0 0.00 0.00 0.00 14 1016.7
20210505221533 83 86 7.0 11.0 0.00 0.00 0.00 14 1016.7
20210505220633 83 113 6.0 9.0 0.00 0.00 0.00 13 1016.8
20210505215733 83 118 4.0 10.0 0.00 0.00 0.00 14 1017.0
20210505214833 83 202 3.0 12.0 0.00 0.00 0.00 14 1017.0
20210505213933 84 120 6.0 12.0 0.00 0.00 0.00 13 1017.1
20210505213033 86 189 2.0 7.0 0.00 0.00 0.00 14 1017.2
20210505212133 85 352 1.0 6.0 0.00 0.00 0.00 14 1017.3
20210505211233 83 43 1.0 5.0 0.00 0.00 0.00 14 1017.5
20210505210333 82 93 1.0 5.0 0.00 0.00 0.00 14 1017.8
20210505205433 83 171 5.0 11.0 0.00 0.00 0.00 14 1017.9
20210505204533 84 170 5.0 12.0 0.00 0.00 0.00 14 1017.8
20210505203633 84 192 3.0 9.0 0.00 0.00 0.00 15 1017.9
20210505202733 83 158 6.0 15.0 0.00 0.00 0.00 15 1018.1
20210505201833 83 148 3.0 9.0 0.00 0.00 0.00 15 1018.3
20210505200933 83 126 3.0 9.0 0.00 0.00 0.00 15 1018.3
20210505200033 82 117 3.0 10.0 0.00 0.00 0.00 15 1018.2
20210505195133 82 213 3.0 11.0 0.00 0.00 0.00 15 1018.2
20210505194233 82 140 5.0 11.0 0.00 0.00 0.00 15 1018.3
20210505193333 82 169 7.0 14.0 0.00 0.00 0.00 15 1018.4
20210505192433 82 174 4.0 11.0 0.00 0.00 0.00 16 1018.6
20210505191533 82 156 5.0 10.0 0.00 0.00 0.00 16 1018.6
20210505190633 81 139 7.0 13.0 0.00 0.00 0.00 16 1018.7
20210505185733 81 147 4.0 11.0 0.00 0.00 0.00 16 1018.7
20210505184833 81 166 5.0 12.0 0.00 0.00 0.00 16 1018.8
20210505183933 81 139 5.0 32.0 0.00 0.00 0.00 16 1018.9
20210505183033 81 37 3.0 9.0 0.00 0.00 0.00 16 1019.0
20210505182133 79 61 3.0 9.0 0.00 0.00 0.00 17 1019.1
20210505181234 79 84 6.0 13.0 0.00 0.00 0.00 17 1019.3
20210505180333 79 95 4.0 11.0 0.00 0.00 0.00 16 1019.4
20210505175433 79 100 4.0 11.0 0.00 0.00 0.00 16 1019.5
20210505174533 79 77 3.0 11.0 0.00 0.00 0.00 16 1019.6
20210505173633 78 35 3.0 9.0 0.00 0.00 0.00 16 1019.7
20210505172733 77 72 5.0 14.0 0.00 0.00 0.00 16 1019.5
20210505171833 77 90 5.0 11.0 0.00 0.00 0.00 17 1019.6
20210505170933 77 74 7.0 15.0 0.00 0.00 0.00 17 1019.4
20210505170033 77 65 2.0 13.0 0.00 0.00 0.00 16 1019.4
20210505165133 78 39 4.0 10.0 0.00 0.00 0.00 16 1019.4
20210505164233 78 32 3.0 8.0 0.00 0.00 0.00 17 1019.5
20210505163333 77 53 4.0 11.0 0.00 0.00 0.00 17 1019.5
20210505162433 77 41 4.0 10.0 0.00 0.00 0.00 17 1019.5
20210505161533 76 41 5.0 10.0 0.00 0.00 0.00 17 1019.4
20210505160633 76 68 6.0 14.0 0.00 0.00 0.00 17 1019.4
20210505155733 76 42 4.0 12.0 0.00 0.00 0.00 17 1019.4
20210505154834 75 34 4.0 10.0 0.00 0.00 0.00 18 1019.4
20210505153933 75 58 5.0 11.0 0.00 0.00 0.00 18 1019.5
20210505153033 75 38 4.0 12.0 0.00 0.00 0.00 18 1019.4
20210505152133 74 37 4.0 9.0 0.00 0.00 0.00 18 1019.4
20210505151233 74 43 4.0 9.0 0.00 0.00 0.00 18 1019.3
20210505150333 74 51 4.0 10.0 0.00 0.00 0.00 18 1019.3
20210505145433 74 45 2.0 10.0 0.00 0.00 0.00 18 1019.3
20210505144533 74 33 2.0 7.0 0.00 0.00 0.00 18 1019.3
20210505143633 73 12 2.0 8.0 0.00 0.00 0.00 19 1019.1
20210505142733 72 7 3.0 9.0 0.00 0.00 0.00 19 1018.9
20210505141833 72 5 1.0 9.0 0.00 0.00 0.00 20 1018.9
20210505140933 70 169 1.0 5.0 0.00 0.00 0.00 20 1018.9
20210505140033 68 181 1.0 7.0 0.00 0.00 0.00 21 1018.9
20210505135133 67 158 0.0 3.0 0.00 0.00 0.00 22 1018.7
20210505134233 67 138 0.0 5.0 0.00 0.00 0.00 22 1018.6
20210505133333 67 73 1.0 5.0 0.00 0.00 0.00 22 1018.6
20210505132433 64 63 0.0 5.0 0.00 0.00 0.00 24 1018.4
20210505131533 61 60 0.0 1.0 0.00 0.00 0.00 26 1018.3
20210505130633 60 62 0.0 1.0 0.00 0.00 0.00 27 1018.3
20210505125733 60 351 0.0 3.0 0.00 0.00 0.00 26 1017.7
20210505124833 61 331 1.0 4.0 0.00 0.00 0.00 26 1017.8
20210505123933 61 303 2.0 6.0 0.00 0.00 0.00 26 1017.7
20210505123033 57 320 1.0 6.0 0.00 0.00 0.00 29 1017.6
20210505122133 54 0 0.0 0.0 0.00 0.00 0.00 31 1017.4
20210505121233 54 0 0.0 0.0 0.00 0.00 0.00 30 1017.3
20210505120333 54 6 1.0 5.0 0.00 0.00 0.00 30 1017.3
20210505115433 55 14 1.0 5.0 0.00 0.00 0.00 29 1017.2
20210505114533 58 9 1.0 3.0 0.00 0.00 0.00 27 1017.3
20210505113633 60 353 1.0 4.0 0.00 0.00 0.00 26 1017.4
20210505112733 61 335 3.0 7.0 0.00 0.00 0.00 25 1017.3
20210505111833 61 331 4.0 6.0 0.00 0.00 0.00 25 1017.2
20210505110933 62 331 4.0 7.0 0.00 0.00 0.00 25 1017.2
20210505110033 62 328 4.0 7.0 0.00 0.00 0.00 24 1017.2
20210505105133 62 325 5.0 9.0 0.00 0.00 0.00 24 1017.1